Time;durP1;ratioP1;P1;durP2;ratioP2;P2;SDS_P1;SDS_P2;PMS_P1;PMS_P2;Temp;Humidity;BMP_temperature;BMP_pressure;BME280_temperature;BME280_humidity;BME280_pressure;Samples;Min_cycle;Max_cycle;Signal;HPM_P1;HPM_P2
2022/06/28 00:01:50;;;;;;;1.95;1.60;;;15.60;99.90;;;;;;5008092;28;20120;-46
2022/06/28 00:04:16;;;;;;;3.08;1.30;;;15.50;99.90;;;;;;5003919;28;20050;-47
2022/06/28 00:06:42;;;;;;;2.03;1.20;;;15.50;99.90;;;;;;5004037;28;20056;-50
2022/06/28 00:09:08;;;;;;;1.80;1.52;;;15.40;99.90;;;;;;5009324;28;20296;-47
2022/06/28 00:11:33;;;;;;;4.60;1.83;;;15.40;99.90;;;;;;5004820;28;20467;-47
2022/06/28 00:13:59;;;;;;;2.47;1.40;;;15.30;99.90;;;;;;5006702;28;20037;-47
2022/06/28 00:16:25;;;;;;;2.30;1.52;;;15.30;99.90;;;;;;5002983;28;20049;-49
2022/06/28 00:18:51;;;;;;;3.40;1.30;;;15.20;99.90;;;;;;5016913;28;20034;-46
2022/06/28 00:21:18;;;;;;;2.08;1.33;;;15.30;99.90;;;;;;5004162;28;20052;-46
2022/06/28 00:23:44;;;;;;;4.82;1.50;;;15.20;99.90;;;;;;5004579;28;20299;-48
2022/06/28 00:26:11;;;;;;;3.15;1.40;;;15.20;99.90;;;;;;5005446;28;20091;-47
2022/06/28 00:28:37;;;;;;;2.95;1.58;;;15.20;99.90;;;;;;5005277;28;20092;-50
2022/06/28 00:31:03;;;;;;;2.03;1.20;;;15.10;99.90;;;;;;5004489;28;20045;-46
2022/06/28 00:33:29;;;;;;;4.22;1.70;;;15.10;99.90;;;;;;5008668;28;20103;-47
2022/06/28 00:35:55;;;;;;;2.60;1.33;;;15.10;99.90;;;;;;5003804;28;20038;-46
2022/06/28 00:38:20;;;;;;;3.63;1.73;;;15.00;99.90;;;;;;5005394;28;20045;-45
2022/06/28 00:40:52;;;;;;;2.92;1.70;;;15.00;99.90;;;;;;5004944;28;20033;-46
2022/06/28 00:43:19;;;;;;;4.15;2.10;;;15.00;99.90;;;;;;5003135;28;20048;-46
2022/06/28 00:45:46;;;;;;;2.47;1.70;;;14.90;99.90;;;;;;5015705;28;20053;-46
2022/06/28 00:48:14;;;;;;;3.50;2.20;;;14.90;99.90;;;;;;5005342;28;20495;-47
2022/06/28 00:50:41;;;;;;;2.55;1.50;;;14.90;99.90;;;;;;5003311;28;20124;-46
2022/06/28 00:53:11;;;;;;;4.28;2.10;;;14.90;99.90;;;;;;5006925;28;20050;-46
2022/06/28 00:55:37;;;;;;;2.60;1.90;;;14.80;99.90;;;;;;5002948;28;20045;-46
2022/06/28 00:58:03;;;;;;;1.88;1.77;;;14.80;99.90;;;;;;5004288;28;20120;-46
2022/06/28 01:00:33;;;;;;;3.45;2.53;;;14.80;99.90;;;;;;5004166;28;20064;-46
2022/06/28 01:02:59;;;;;;;3.40;2.00;;;14.80;99.90;;;;;;5007970;28;20038;-46
2022/06/28 01:05:25;;;;;;;2.50;1.77;;;14.70;99.90;;;;;;5003653;28;20425;-48
2022/06/28 01:07:50;;;;;;;3.58;1.80;;;14.70;99.90;;;;;;5006222;28;20037;-46
2022/06/28 01:10:16;;;;;;;3.10;1.65;;;14.70;99.90;;;;;;5007780;28;20099;-49
2022/06/28 01:12:41;;;;;;;3.50;1.90;;;14.60;99.90;;;;;;5007497;28;20038;-47
2022/06/28 01:15:07;;;;;;;2.33;1.60;;;14.60;99.90;;;;;;5004071;28;20049;-46
2022/06/28 01:17:33;;;;;;;2.63;1.98;;;14.60;99.90;;;;;;5005225;28;20526;-48
2022/06/28 01:19:59;;;;;;;4.53;2.55;;;14.60;99.90;;;;;;5006393;28;20037;-47
2022/06/28 01:22:27;;;;;;;3.83;2.60;;;14.50;99.90;;;;;;5003150;28;20159;-49
2022/06/28 01:24:53;;;;;;;2.70;2.33;;;14.50;99.90;;;;;;5021053;28;20061;-46
2022/06/28 01:27:19;;;;;;;3.38;2.22;;;14.50;99.90;;;;;;5003901;28;20119;-47
2022/06/28 01:29:45;;;;;;;3.40;2.05;;;14.50;99.90;;;;;;5005419;28;20042;-49
2022/06/28 01:32:14;;;;;;;2.90;2.17;;;14.40;99.90;;;;;;5007024;28;21342;-47
2022/06/28 01:34:40;;;;;;;5.10;3.20;;;14.40;99.90;;;;;;5002884;28;20128;-49
2022/06/28 01:37:07;;;;;;;3.67;3.20;;;14.40;99.90;;;;;;5004704;28;20057;-47
2022/06/28 01:39:33;;;;;;;2.53;2.20;;;14.40;99.90;;;;;;5006066;28;20041;-49
2022/06/28 01:41:59;;;;;;;3.00;2.20;;;14.40;99.90;;;;;;5006960;28;20233;-47
2022/06/28 01:44:25;;;;;;;2.88;2.35;;;14.30;99.90;;;;;;5002521;28;20049;-47
2022/06/28 01:46:51;;;;;;;4.82;2.80;;;14.40;99.90;;;;;;5002484;28;20578;-46
2022/06/28 01:49:16;;;;;;;4.97;2.83;;;14.30;99.90;;;;;;5003954;28;20058;-47
2022/06/28 01:51:42;;;;;;;3.60;2.28;;;14.30;99.90;;;;;;5003672;28;20119;-46
2022/06/28 01:54:08;;;;;;;4.30;2.97;;;14.30;99.90;;;;;;5004337;28;20362;-46
2022/06/28 01:56:35;;;;;;;2.28;2.08;;;14.20;99.90;;;;;;5004429;28;20469;-46
2022/06/28 01:59:02;;;;;;;5.10;3.03;;;14.20;99.90;;;;;;5002200;28;20046;-48
2022/06/28 02:01:27;;;;;;;3.03;2.83;;;14.20;99.90;;;;;;5003157;28;20049;-45
2022/06/28 02:03:53;;;;;;;2.95;2.72;;;14.10;99.90;;;;;;5006810;28;20038;-49
2022/06/28 02:06:19;;;;;;;4.05;2.33;;;14.20;99.90;;;;;;5005012;28;20357;-48
2022/06/28 02:08:45;;;;;;;3.40;3.10;;;14.20;99.90;;;;;;5000544;28;20041;-46
2022/06/28 02:11:11;;;;;;;3.47;3.20;;;14.10;99.90;;;;;;5003875;28;20041;-47
2022/06/28 02:13:36;;;;;;;2.58;2.30;;;14.10;99.90;;;;;;4988236;28;20053;-46
2022/06/28 02:16:02;;;;;;;2.72;2.20;;;14.10;99.90;;;;;;5005660;28;20470;-47
2022/06/28 02:18:30;;;;;;;3.95;2.63;;;14.10;99.90;;;;;;5006741;28;20068;-46
2022/06/28 02:20:57;;;;;;;2.58;2.38;;;14.10;99.90;;;;;;5022822;28;20042;-46
2022/06/28 02:23:23;;;;;;;3.80;2.65;;;14.10;99.90;;;;;;5005769;28;20229;-47
2022/06/28 02:25:49;;;;;;;2.80;2.40;;;14.10;99.90;;;;;;5008346;28;20034;-46
2022/06/28 02:28:14;;;;;;;4.47;4.07;;;14.00;99.90;;;;;;5005494;28;20053;-45
2022/06/28 02:30:40;;;;;;;3.78;3.03;;;14.00;99.90;;;;;;5009556;28;20123;-46
2022/06/28 02:33:06;;;;;;;2.75;2.42;;;14.00;99.90;;;;;;5007958;28;20390;-46
2022/06/28 02:41:00;;;;;;;2.67;2.25;;;13.90;99.90;;;;;;5008925;28;20068;-46
2022/06/28 02:43:26;;;;;;;3.08;2.78;;;13.90;99.90;;;;;;5009618;28;20507;-47
2022/06/28 02:45:51;;;;;;;2.53;2.33;;;13.90;99.90;;;;;;4977380;28;20510;-46
2022/06/28 02:48:17;;;;;;;4.05;2.63;;;13.90;99.90;;;;;;4972849;28;20567;-46
2022/06/28 02:50:42;;;;;;;3.58;2.40;;;13.90;99.90;;;;;;5005667;28;20058;-46
2022/06/28 02:53:08;;;;;;;2.75;2.08;;;13.90;99.90;;;;;;5009973;28;20052;-47
2022/06/28 02:55:34;;;;;;;4.38;2.90;;;13.90;99.90;;;;;;5006580;28;20037;-49
2022/06/28 02:58:00;;;;;;;2.17;1.95;;;13.90;99.90;;;;;;5004685;28;20041;-46
2022/06/28 03:00:25;;;;;;;2.30;2.08;;;13.80;99.90;;;;;;5008881;28;20495;-48
2022/06/28 03:02:51;;;;;;;4.07;3.78;;;13.80;99.90;;;;;;5005577;28;20400;-45
2022/06/28 03:05:19;;;;;;;4.05;3.65;;;13.80;99.90;;;;;;5004910;28;20046;-49
2022/06/28 03:07:45;;;;;;;2.53;2.28;;;13.80;99.90;;;;;;5007006;28;20084;-45
2022/06/28 03:10:11;;;;;;;3.58;2.08;;;13.80;99.90;;;;;;5011460;28;20145;-47
2022/06/28 03:12:37;;;;;;;2.88;2.53;;;13.80;99.90;;;;;;5006601;28;20038;-47
2022/06/28 03:15:04;;;;;;;2.60;2.30;;;13.80;99.90;;;;;;5006215;28;20697;-46
2022/06/28 03:17:30;;;;;;;2.70;2.08;;;13.80;99.90;;;;;;5006544;28;20828;-49
2022/06/28 03:19:55;;;;;;;2.30;2.10;;;13.80;99.90;;;;;;5018298;28;20049;-46
2022/06/28 03:22:21;;;;;;;3.28;2.97;;;13.80;99.90;;;;;;5008454;28;20112;-48
2022/06/28 03:24:47;;;;;;;3.25;2.58;;;13.70;99.90;;;;;;5003586;28;20049;-49
2022/06/28 03:27:13;;;;;;;2.65;2.40;;;13.80;99.90;;;;;;5005490;28;20053;-47
2022/06/28 03:29:39;;;;;;;3.25;2.10;;;13.70;99.90;;;;;;5006319;28;20331;-46
2022/06/28 03:32:05;;;;;;;2.55;1.73;;;13.70;99.90;;;;;;5005352;28;20101;-46
2022/06/28 03:34:31;;;;;;;2.75;2.55;;;13.70;99.90;;;;;;4987990;28;20046;-47
2022/06/28 03:36:56;;;;;;;3.65;2.85;;;13.70;99.90;;;;;;5005427;28;20044;-46
2022/06/28 03:39:22;;;;;;;2.08;1.90;;;13.70;99.90;;;;;;5004293;28;20042;-46
2022/06/28 03:41:48;;;;;;;2.92;2.30;;;13.70;99.90;;;;;;5005957;28;20451;-46
2022/06/28 03:44:13;;;;;;;6.43;3.33;;;13.70;99.90;;;;;;5006318;28;20045;-45
2022/06/28 03:46:39;;;;;;;2.88;2.13;;;13.70;99.90;;;;;;5006660;28;20106;-46
2022/06/28 03:49:05;;;;;;;3.05;2.03;;;13.70;99.90;;;;;;5006325;28;20080;-46
2022/06/28 03:51:30;;;;;;;2.92;1.95;;;13.70;99.90;;;;;;5010589;28;20045;-47
2022/06/28 03:53:56;;;;;;;4.38;3.08;;;13.70;99.90;;;;;;5010483;28;20738;-46
2022/06/28 03:56:22;;;;;;;3.70;2.83;;;13.80;99.90;;;;;;5006727;28;20784;-46
2022/06/28 03:58:48;;;;;;;4.47;3.08;;;13.80;99.90;;;;;;5005502;28;20681;-46
2022/06/28 04:01:14;;;;;;;5.75;3.47;;;13.70;99.90;;;;;;5007460;28;20053;-46
2022/06/28 04:03:39;;;;;;;4.15;3.15;;;13.80;99.90;;;;;;5003618;28;20057;-46
2022/06/28 04:06:05;;;;;;;5.38;3.42;;;13.80;99.90;;;;;;5005182;28;20144;-46
2022/06/28 04:08:31;;;;;;;4.15;2.28;;;13.80;99.90;;;;;;5003616;28;20122;-46
2022/06/28 04:11:15;;;;;;;5.93;3.25;;;13.80;99.90;;;;;;5005751;28;20552;-46
2022/06/28 04:13:44;;;;;;;3.13;2.47;;;13.80;99.90;;;;;;5006292;28;20133;-46
2022/06/28 04:16:10;;;;;;;3.38;2.78;;;13.80;99.90;;;;;;5004804;28;20455;-45
2022/06/28 04:18:35;;;;;;;4.72;2.80;;;13.80;99.90;;;;;;5007042;28;20138;-46
2022/06/28 04:21:01;;;;;;;4.47;2.72;;;13.80;99.90;;;;;;4988420;28;20073;-46
2022/06/28 04:23:27;;;;;;;3.70;2.40;;;13.80;99.90;;;;;;5022840;28;20411;-46
2022/06/28 04:25:53;;;;;;;5.45;3.33;;;13.80;99.90;;;;;;5017586;28;20059;-45
2022/06/28 04:28:19;;;;;;;4.75;3.33;;;13.80;99.90;;;;;;5005835;28;20041;-45
2022/06/28 04:30:45;;;;;;;5.07;2.90;;;13.90;99.90;;;;;;5007713;28;20320;-46
2022/06/28 04:33:10;;;;;;;4.13;2.53;;;13.90;99.90;;;;;;5006939;28;20050;-46
2022/06/28 04:35:36;;;;;;;4.20;3.58;;;13.90;99.90;;;;;;5003619;28;20045;-46
2022/06/28 04:38:02;;;;;;;4.85;3.00;;;13.90;99.90;;;;;;5006931;28;20041;-46
2022/06/28 04:40:28;;;;;;;4.10;2.90;;;14.00;99.90;;;;;;5004289;28;20513;-47
2022/06/28 04:42:53;;;;;;;5.15;2.97;;;14.00;99.90;;;;;;5007044;28;20046;-46
2022/06/28 04:45:19;;;;;;;3.53;2.30;;;14.10;99.90;;;;;;5004038;28;20377;-46
2022/06/28 04:47:45;;;;;;;4.40;2.47;;;14.10;99.90;;;;;;5003620;28;20455;-45
2022/06/28 04:50:11;;;;;;;5.65;2.88;;;14.20;99.90;;;;;;4988308;28;20586;-48
2022/06/28 04:52:36;;;;;;;4.25;2.50;;;14.20;99.90;;;;;;5005762;28;20049;-45
2022/06/28 04:55:06;;;;;;;6.28;2.33;;;14.30;99.90;;;;;;5004752;28;20736;-47
2022/06/28 04:57:31;;;;;;;3.60;2.22;;;14.30;99.90;;;;;;5008122;28;20488;-47
2022/06/28 04:59:57;;;;;;;3.80;2.00;;;14.40;99.90;;;;;;5003816;28;20045;-46
2022/06/28 05:02:22;;;;;;;4.38;2.58;;;14.40;99.90;;;;;;4990560;28;20050;-48
2022/06/28 05:04:48;;;;;;;4.10;2.03;;;14.50;99.90;;;;;;5005732;28;20531;-47
2022/06/28 05:07:14;;;;;;;5.68;3.00;;;14.50;99.90;;;;;;5003997;28;20100;-46
2022/06/28 05:09:40;;;;;;;5.40;2.55;;;14.50;99.90;;;;;;5006362;28;20133;-46
2022/06/28 05:12:06;;;;;;;3.72;2.00;;;14.50;99.90;;;;;;5005026;28;20128;-46
2022/06/28 05:14:33;;;;;;;3.22;2.60;;;14.60;99.90;;;;;;5007524;28;20088;-47
2022/06/28 05:16:59;;;;;;;6.10;2.75;;;14.60;99.90;;;;;;5008348;28;20068;-46
2022/06/28 05:19:25;;;;;;;3.50;2.25;;;14.60;99.90;;;;;;5003205;28;20373;-46
2022/06/28 05:21:51;;;;;;;4.93;2.13;;;14.60;99.90;;;;;;5000399;28;20622;-46
2022/06/28 05:24:17;;;;;;;4.13;2.17;;;14.70;99.90;;;;;;5016454;28;20053;-46
2022/06/28 05:26:43;;;;;;;5.75;1.98;;;14.80;99.90;;;;;;5001277;28;20041;-46
2022/06/28 05:29:08;;;;;;;4.50;1.75;;;15.20;99.90;;;;;;5000431;28;20045;-46
2022/06/28 05:31:35;;;;;;;3.53;1.77;;;16.00;99.90;;;;;;5000119;28;20053;-47
2022/06/28 05:34:01;;;;;;;3.95;1.70;;;16.80;99.90;;;;;;5020291;28;20145;-47
2022/06/28 05:36:27;;;;;;;7.03;1.60;;;17.40;99.90;;;;;;5002878;28;20053;-47
2022/06/28 05:38:53;;;;;;;3.10;1.25;;;17.50;99.90;;;;;;5020256;28;20537;-48
2022/06/28 05:41:19;;;;;;;4.97;1.30;;;17.50;99.90;;;;;;5020319;28;20396;-47
2022/06/28 05:43:44;;;;;;;3.67;1.42;;;17.50;99.90;;;;;;5020533;28;20052;-46
2022/06/28 05:46:10;;;;;;;3.03;1.00;;;17.70;99.90;;;;;;5002101;28;20389;-46
2022/06/28 05:48:36;;;;;;;3.55;1.13;;;17.80;99.90;;;;;;5020104;28;20045;-46
2022/06/28 05:51:03;;;;;;;6.28;1.40;;;17.80;99.90;;;;;;5019714;28;20049;-44
2022/06/28 05:53:29;;;;;;;3.20;1.08;;;17.80;99.90;;;;;;5022482;28;20060;-44
2022/06/28 05:55:55;;;;;;;2.95;1.38;;;17.70;99.90;;;;;;5023860;28;20087;-45
2022/06/28 05:58:21;;;;;;;3.92;1.20;;;17.70;99.90;;;;;;5024090;28;20134;-45
2022/06/28 06:00:49;;;;;;;5.05;1.40;;;17.60;99.90;;;;;;5023524;28;20077;-44
2022/06/28 06:03:15;;;;;;;5.75;1.40;;;17.60;99.90;;;;;;5024214;28;20617;-46
2022/06/28 06:05:41;;;;;;;3.10;1.10;;;17.50;99.90;;;;;;5022603;28;20041;-44
2022/06/28 06:08:07;;;;;;;3.70;1.13;;;17.50;99.90;;;;;;5023546;28;20095;-44
2022/06/28 06:10:33;;;;;;;6.13;1.65;;;17.40;99.90;;;;;;5023519;28;20042;-45
2022/06/28 06:12:58;;;;;;;6.40;1.52;;;17.40;99.90;;;;;;5022215;28;20123;-45
2022/06/28 06:15:24;;;;;;;5.18;1.50;;;17.40;99.90;;;;;;5022408;28;20050;-44
2022/06/28 06:17:50;;;;;;;3.97;1.48;;;17.40;99.90;;;;;;5023709;28;20386;-45
2022/06/28 06:20:15;;;;;;;9.18;1.70;;;17.40;99.90;;;;;;5023746;28;20041;-44
2022/06/28 06:22:41;;;;;;;5.35;1.27;;;17.40;99.90;;;;;;5023464;28;20049;-44
2022/06/28 06:25:07;;;;;;;4.15;1.33;;;17.40;99.90;;;;;;5023681;28;20503;-44
2022/06/28 06:27:33;;;;;;;4.70;1.20;;;17.40;99.90;;;;;;5023943;28;20053;-44
2022/06/28 06:29:59;;;;;;;3.85;1.10;;;17.40;99.90;;;;;;5023861;28;20070;-44
2022/06/28 06:32:24;;;;;;;5.05;1.33;;;17.40;99.90;;;;;;5021799;28;20120;-43
2022/06/28 06:34:50;;;;;;;4.82;1.33;;;17.40;99.90;;;;;;5021634;28;20049;-44
2022/06/28 06:37:15;;;;;;;6.22;1.30;;;17.50;99.90;;;;;;5023717;28;20041;-45
2022/06/28 06:39:41;;;;;;;3.75;1.13;;;17.50;99.90;;;;;;5023337;28;20045;-45
2022/06/28 06:42:07;;;;;;;5.78;1.02;;;17.50;99.90;;;;;;5022068;28;20167;-44
2022/06/28 06:44:33;;;;;;;2.90;1.10;;;17.50;99.90;;;;;;5021739;28;20060;-43
2022/06/28 06:46:59;;;;;;;2.60;1.00;;;17.60;99.90;;;;;;5023131;28;20415;-46
2022/06/28 06:49:25;;;;;;;4.45;0.77;;;17.60;99.90;;;;;;5004106;28;20571;-45
2022/06/28 06:51:51;;;;;;;5.57;1.08;;;17.70;99.90;;;;;;5004235;28;20172;-44
2022/06/28 06:54:17;;;;;;;3.78;0.88;;;17.80;99.90;;;;;;5022750;28;20072;-46
2022/06/28 06:56:42;;;;;;;5.38;1.00;;;17.80;99.90;;;;;;5022649;28;20120;-45
2022/06/28 06:59:11;;;;;;;3.08;0.95;;;17.80;99.90;;;;;;5021592;28;20045;-45
2022/06/28 07:01:37;;;;;;;3.78;0.95;;;17.90;99.90;;;;;;5005108;28;20048;-46
2022/06/28 07:04:04;;;;;;;5.03;0.75;;;18.00;99.90;;;;;;5020118;28;20098;-44
2022/06/28 07:06:29;;;;;;;3.47;0.70;;;18.00;99.90;;;;;;5022938;28;20076;-45
2022/06/28 07:08:55;;;;;;;3.17;0.68;;;18.10;99.90;;;;;;5022377;28;20045;-45
2022/06/28 07:11:21;;;;;;;4.90;0.52;;;18.20;99.90;;;;;;5016406;28;20296;-45
2022/06/28 07:13:48;;;;;;;2.67;0.73;;;18.20;99.90;;;;;;5009340;28;20091;-46
2022/06/28 07:16:15;;;;;;;4.13;0.77;;;18.30;99.90;;;;;;4994328;28;20050;-44
2022/06/28 07:18:42;;;;;;;3.15;0.60;;;18.30;99.90;;;;;;5010001;28;20037;-47
2022/06/28 07:21:09;;;;;;;4.80;0.73;;;18.40;99.90;;;;;;5017920;28;20037;-45
2022/06/28 07:23:34;;;;;;;3.17;0.50;;;18.50;99.90;;;;;;5008282;28;20520;-45
2022/06/28 07:26:00;;;;;;;4.65;0.68;;;18.60;99.90;;;;;;5008344;28;20037;-47
2022/06/28 07:28:26;;;;;;;4.57;0.60;;;18.60;99.90;;;;;;5004700;28;20500;-48
2022/06/28 07:30:51;;;;;;;5.50;0.50;;;18.70;99.90;;;;;;5007943;28;20030;-48
2022/06/28 07:33:17;;;;;;;3.38;0.60;;;18.80;99.90;;;;;;5006734;28;20076;-44
2022/06/28 07:35:44;;;;;;;3.70;0.50;;;18.80;99.90;;;;;;5007200;28;20033;-46
2022/06/28 07:38:10;;;;;;;5.85;0.50;;;19.00;99.90;;;;;;4990580;28;20050;-44
2022/06/28 07:40:36;;;;;;;4.43;0.60;;;19.00;99.90;;;;;;4990587;28;20502;-45
2022/06/28 07:43:01;;;;;;;4.20;0.45;;;19.10;99.90;;;;;;5006573;28;20088;-44
2022/06/28 07:45:27;;;;;;;2.63;0.50;;;19.20;99.90;;;;;;5006547;28;20049;-44
2022/06/28 07:47:53;;;;;;;3.85;0.60;;;19.30;99.90;;;;;;5008399;28;20042;-44
2022/06/28 07:53:06;;;;;;;4.40;0.60;;;19.40;99.90;;;;;;5006736;28;20132;-45
2022/06/28 07:55:33;;;;;;;6.70;0.82;;;19.50;99.90;;;;;;5007146;28;20108;-46
2022/06/28 07:57:59;;;;;;;6.65;0.73;;;19.60;99.90;;;;;;5007769;28;20641;-46
2022/06/28 08:00:25;;;;;;;7.43;1.10;;;19.70;99.90;;;;;;5004677;28;20045;-47
2022/06/28 08:02:51;;;;;;;6.93;0.93;;;19.70;99.90;;;;;;5005336;28;20041;-45
2022/06/28 08:05:18;;;;;;;7.35;0.60;;;19.70;99.90;;;;;;5007155;28;20107;-44
2022/06/28 08:07:44;;;;;;;5.07;0.70;;;19.80;99.90;;;;;;5008406;28;20074;-45
2022/06/28 08:10:11;;;;;;;7.43;0.57;;;19.80;99.90;;;;;;5010919;28;20049;-45
2022/06/28 08:12:37;;;;;;;4.15;0.50;;;19.90;99.90;;;;;;5006904;28;20570;-44
2022/06/28 08:15:04;;;;;;;5.20;0.45;;;20.00;99.90;;;;;;5007448;28;20052;-45
2022/06/28 08:17:30;;;;;;;5.03;0.80;;;20.00;99.90;;;;;;5006031;28;20652;-45
2022/06/28 08:19:56;;;;;;;3.15;0.50;;;20.10;99.90;;;;;;5003988;28;20049;-45
2022/06/28 08:22:22;;;;;;;7.40;0.60;;;20.20;99.90;;;;;;4985662;28;20049;-45
2022/06/28 08:24:47;;;;;;;6.35;0.60;;;20.20;99.90;;;;;;5007433;28;20037;-43
2022/06/28 08:27:13;;;;;;;2.60;0.40;;;20.30;99.90;;;;;;5007868;28;20084;-44
2022/06/28 08:29:42;;;;;;;3.70;0.60;;;20.30;99.90;;;;;;5022449;28;20042;-43
2022/06/28 08:32:09;;;;;;;3.30;0.30;;;20.40;99.90;;;;;;5015309;28;20042;-44
2022/06/28 08:34:35;;;;;;;6.43;0.80;;;20.40;99.90;;;;;;5025339;28;20068;-43
2022/06/28 08:37:00;;;;;;;6.55;0.63;;;20.50;99.90;;;;;;5027415;28;20384;-44
2022/06/28 08:39:26;;;;;;;4.65;0.40;;;20.60;99.90;;;;;;5011427;28;21329;-45
2022/06/28 08:41:53;;;;;;;3.65;0.40;;;20.60;99.90;;;;;;5014184;28;20099;-44
2022/06/28 08:44:19;;;;;;;5.65;0.75;;;20.70;99.90;;;;;;5012895;28;20129;-43
2022/06/28 08:46:52;;;;;;;4.38;0.50;;;20.80;99.90;;;;;;5017129;28;20139;-44
2022/06/28 08:49:27;;;;;;;6.60;0.70;;;20.80;99.90;;;;;;5014994;28;20427;-43
2022/06/28 08:51:54;;;;;;;4.65;0.50;;;20.90;99.90;;;;;;5015887;28;20144;-44
2022/06/28 08:54:22;;;;;;;4.93;0.38;;;21.00;99.90;;;;;;5012090;28;20068;-45
2022/06/28 08:56:49;;;;;;;4.47;0.40;;;21.10;99.90;;;;;;5013530;28;20399;-44
2022/06/28 08:59:16;;;;;;;88.47;7.22;;;21.10;99.90;;;;;;5009030;28;20488;-47
2022/06/28 09:01:42;;;;;;;20.15;1.40;;;21.20;99.90;;;;;;5013257;28;20087;-43
2022/06/28 09:04:10;;;;;;;10.90;1.02;;;21.20;99.90;;;;;;5012229;28;20046;-44
2022/06/28 09:06:35;;;;;;;12.77;1.02;;;21.30;99.90;;;;;;5014303;28;20600;-46
2022/06/28 09:09:02;;;;;;;14.15;1.08;;;21.40;99.90;;;;;;5008002;28;20045;-45
2022/06/28 09:11:43;;;;;;;11.68;1.20;;;21.40;99.90;;;;;;5008665;28;20123;-43
2022/06/28 09:14:29;;;;;;;11.80;0.70;;;21.50;99.90;;;;;;5012131;28;20491;-45
2022/06/28 09:16:56;;;;;;;11.27;0.70;;;21.60;99.90;;;;;;5013781;28;20049;-49
2022/06/28 09:19:38;;;;;;;5.38;0.32;;;21.60;99.90;;;;;;5011933;28;20038;-44
2022/06/28 09:22:04;;;;;;;6.07;0.40;;;21.70;99.90;;;;;;5009412;28;20124;-43
2022/06/28 09:24:31;;;;;;;5.60;0.40;;;21.80;99.90;;;;;;5013333;28;20038;-45
2022/06/28 09:27:04;;;;;;;4.97;0.50;;;21.80;99.90;;;;;;5008744;28;20459;-45
2022/06/28 09:29:29;;;;;;;;;;;21.90;99.90;;;;;;5015340;28;20042;-43
2022/06/28 09:31:55;;;;;;;4.97;0.40;;;22.00;99.90;;;;;;5017802;28;20364;-44
2022/06/28 09:34:21;;;;;;;5.60;0.60;;;22.00;99.90;;;;;;5015812;28;20594;-44
2022/06/28 09:36:56;;;;;;;4.20;0.30;;;22.10;99.90;;;;;;5018531;28;20230;-43
2022/06/28 09:39:27;;;;;;;4.13;0.40;;;22.20;99.90;;;;;;5014091;28;20068;-44
2022/06/28 09:41:56;;;;;;;5.22;0.60;;;22.30;99.90;;;;;;5013979;28;20484;-43
2022/06/28 09:44:26;;;;;;;5.93;0.50;;;22.30;99.90;;;;;;5023716;28;20033;-44
2022/06/28 09:46:54;;;;;;;16.88;0.75;;;22.50;99.90;;;;;;5015736;28;20057;-44
2022/06/28 09:49:26;;;;;;;7.47;0.50;;;22.50;99.90;;;;;;5027978;28;20468;-44
2022/06/28 09:51:53;;;;;;;10.10;0.50;;;22.60;99.90;;;;;;5013489;28;20080;-43
2022/06/28 09:54:20;;;;;;;4.95;0.60;;;22.70;99.90;;;;;;5013883;28;20073;-45
2022/06/28 09:56:53;;;;;;;4.57;0.40;;;22.80;99.90;;;;;;5016389;28;20056;-43
2022/06/28 09:59:21;;;;;;;6.13;0.43;;;22.80;99.90;;;;;;5020460;28;20045;-44
2022/06/28 10:01:48;;;;;;;3.80;0.40;;;22.90;99.90;;;;;;5013109;28;20403;-44
2022/06/28 10:04:14;;;;;;;10.13;0.55;;;23.00;99.90;;;;;;5010581;28;20108;-45
2022/06/28 10:06:40;;;;;;;9.82;1.00;;;23.10;99.90;;;;;;5010970;28;20718;-47
2022/06/28 10:09:06;;;;;;;6.35;0.70;;;23.10;99.90;;;;;;5012388;28;20144;-43
2022/06/28 10:15:01;;;;;;;5.95;0.50;;;23.20;99.90;;;;;;5006548;28;20136;-44
2022/06/28 10:17:41;;;;;;;6.18;0.50;;;23.40;99.90;;;;;;5011931;28;20229;-46
2022/06/28 10:20:10;;;;;;;8.70;0.73;;;23.50;99.90;;;;;;4998832;28;20050;-47
2022/06/28 10:22:35;;;;;;;2.92;0.40;;;23.50;99.90;;;;;;5007902;28;20041;-46
2022/06/28 10:25:12;;;;;;;3.35;0.40;;;23.60;99.90;;;;;;5004891;28;20110;-45
2022/06/28 10:27:52;;;;;;;4.30;0.40;;;23.70;99.90;;;;;;5009562;28;20052;-47
2022/06/28 10:30:21;;;;;;;6.45;0.60;;;23.70;99.90;;;;;;5009573;28;20064;-45
2022/06/28 10:32:48;;;;;;;4.60;0.40;;;23.80;99.90;;;;;;5005005;28;20256;-45
2022/06/28 10:35:32;;;;;;;4.60;0.60;;;23.90;99.90;;;;;;5008789;28;20124;-44
2022/06/28 10:38:10;;;;;;;5.15;0.50;;;24.00;99.90;;;;;;5009547;28;20080;-48
2022/06/28 10:41:09;;;;;;;6.35;0.63;;;24.00;99.90;;;;;;5006608;28;20077;-47
2022/06/28 10:43:46;;;;;;;4.72;0.50;;;24.10;99.90;;;;;;5010899;28;20037;-46
2022/06/28 10:46:13;;;;;;;6.45;0.68;;;24.10;99.90;;;;;;5008210;28;20068;-46
2022/06/28 10:48:47;;;;;;;3.45;0.40;;;24.10;99.90;;;;;;4991647;28;20034;-45
2022/06/28 10:51:13;;;;;;;4.75;0.30;;;24.10;99.90;;;;;;5008586;28;20050;-44
2022/06/28 10:53:54;;;;;;;8.27;0.70;;;24.10;99.90;;;;;;5005661;28;20550;-45
2022/06/28 10:56:21;;;;;;;5.65;0.45;;;24.20;99.90;;;;;;5009894;28;20056;-45
2022/06/28 10:58:58;;;;;;;5.97;0.55;;;24.20;99.90;;;;;;5009643;28;20042;-44
2022/06/28 11:01:39;;;;;;;7.20;0.50;;;24.10;99.90;;;;;;5009349;28;20471;-45
2022/06/28 11:04:11;;;;;;;5.53;0.47;;;24.10;99.90;;;;;;5009908;28;20459;-44
2022/06/28 11:06:47;;;;;;;5.22;0.40;;;24.10;99.90;;;;;;4999810;28;20076;-45
2022/06/28 11:09:28;;;;;;;5.05;0.50;;;24.10;99.90;;;;;;4992202;28;20049;-47
2022/06/28 11:12:17;;;;;;;4.80;0.47;;;24.20;99.90;;;;;;5007575;28;20184;-44
2022/06/28 11:14:54;;;;;;;5.32;0.50;;;24.10;99.90;;;;;;5006922;28;20872;-44
2022/06/28 11:17:27;;;;;;;6.00;0.50;;;24.10;99.90;;;;;;5008673;28;20129;-44
2022/06/28 11:19:56;;;;;;;3.53;0.45;;;24.10;99.90;;;;;;5005800;28;20048;-45
2022/06/28 11:22:33;;;;;;;4.38;0.40;;;24.20;99.90;;;;;;5007584;28;20045;-45
2022/06/28 11:25:02;;;;;;;5.72;0.68;;;24.20;99.90;;;;;;5010149;28;20049;-44
2022/06/28 11:27:28;;;;;;;6.15;0.65;;;24.20;99.90;;;;;;5007620;28;20077;-45
2022/06/28 11:30:00;;;;;;;6.97;0.80;;;24.20;99.90;;;;;;5005079;28;20053;-45
2022/06/28 11:32:37;;;;;;;7.75;0.60;;;24.20;99.90;;;;;;5006578;28;20458;-47
2022/06/28 11:35:13;;;;;;;7.45;0.57;;;24.30;99.90;;;;;;5008392;28;20053;-46
2022/06/28 11:38:02;;;;;;;5.97;0.50;;;24.30;99.90;;;;;;5004190;28;20503;-44
2022/06/28 11:40:42;;;;;;;6.88;0.60;;;24.30;99.90;;;;;;5011080;28;20371;-46
2022/06/28 11:43:13;;;;;;;4.75;0.40;;;24.40;99.90;;;;;;5007704;28;20029;-45
2022/06/28 11:45:41;;;;;;;6.07;0.63;;;24.40;99.90;;;;;;5006174;28;20050;-44
2022/06/28 11:48:14;;;;;;;4.07;0.50;;;24.50;99.90;;;;;;5007364;28;20669;-48
2022/06/28 11:50:41;;;;;;;;;;;24.50;99.90;;;;;;5000009;28;20064;-43
2022/06/28 11:53:07;;;;;;;4.32;0.52;;;24.50;99.90;;;;;;5008167;28;20290;-46
2022/06/28 11:55:41;;;;;;;5.53;0.50;;;24.60;99.90;;;;;;5005609;28;20512;-44
2022/06/28 11:58:14;;;;;;;5.68;0.90;;;24.70;99.90;;;;;;5009350;28;20399;-44
2022/06/28 12:00:40;;;;;;;4.28;0.52;;;24.70;99.90;;;;;;5007184;28;20427;-45
2022/06/28 12:03:06;;;;;;;4.78;0.50;;;24.80;99.90;;;;;;5009201;28;20483;-46
2022/06/28 12:05:36;;;;;;;6.07;0.68;;;24.80;99.90;;;;;;5010726;28;20049;-46
2022/06/28 12:08:03;;;;;;;4.07;0.40;;;24.80;99.90;;;;;;5007681;28;20092;-45
2022/06/28 12:10:32;;;;;;;3.95;0.40;;;24.90;99.90;;;;;;5007182;28;20048;-47
2022/06/28 12:13:11;;;;;;;4.63;0.40;;;25.00;99.90;;;;;;5004807;28;20121;-49
2022/06/28 12:15:37;;;;;;;4.10;0.55;;;25.10;99.90;;;;;;5005700;28;20037;-44
2022/06/28 12:18:06;;;;;;;6.20;0.47;;;25.10;99.90;;;;;;5003601;28;20087;-44
2022/06/28 12:20:32;;;;;;;5.45;0.40;;;25.20;99.90;;;;;;5008305;28;20033;-49
2022/06/28 12:23:05;;;;;;;4.60;0.50;;;25.30;99.90;;;;;;5010667;28;20411;-44
2022/06/28 12:25:32;;;;;;;4.90;0.40;;;25.40;99.90;;;;;;5010507;28;20049;-48
2022/06/28 12:27:58;;;;;;;3.22;0.50;;;25.40;99.90;;;;;;5005245;28;20084;-45
2022/06/28 12:30:25;;;;;;;3.55;0.47;;;25.50;99.90;;;;;;5002609;28;20121;-48
2022/06/28 12:32:52;;;;;;;4.15;0.50;;;25.60;99.90;;;;;;5006337;28;20069;-46
2022/06/28 12:35:19;;;;;;;5.63;0.52;;;25.70;99.90;;;;;;5014400;28;20054;-44
2022/06/28 12:37:45;;;;;;;5.50;0.70;;;25.80;99.90;;;;;;5007735;28;20042;-48
2022/06/28 12:40:12;;;;;;;4.43;0.50;;;25.90;99.90;;;;;;4991204;28;20053;-47
2022/06/28 12:42:38;;;;;;;5.57;0.40;;;26.00;99.90;;;;;;5023426;28;20297;-46
2022/06/28 12:45:05;;;;;;;4.72;0.45;;;26.10;99.90;;;;;;5006215;28;20137;-45
2022/06/28 12:47:37;;;;;;;3.95;0.43;;;26.20;99.90;;;;;;5003872;28;20134;-46
2022/06/28 12:50:05;;;;;;;2.92;0.43;;;26.20;99.90;;;;;;5008309;28;20153;-47
2022/06/28 12:52:34;;;;;;;3.63;0.50;;;26.20;99.90;;;;;;5005110;28;20488;-44
2022/06/28 12:55:00;;;;;;;5.85;0.50;;;26.30;99.90;;;;;;5002637;28;20050;-43
2022/06/28 12:57:27;;;;;;;3.60;0.40;;;26.30;99.90;;;;;;5003790;28;20038;-44
2022/06/28 12:59:53;;;;;;;6.75;0.52;;;26.30;99.90;;;;;;5006430;28;20037;-44
2022/06/28 13:02:18;;;;;;;5.05;0.40;;;26.40;99.80;;;;;;5008454;28;20145;-44